Airport View

Enter AWOS ICAO identifier for current METAR.

ex. KFNL

KADS 120515Z AUTO 10003KT 10SM CLR 06/01 A3042 RMK AO2 T00550013

12 Dec 2019 05:33

Phone: 972-386-4855

Other Area AWOS: KDAL - KDFW - KRBD - KTKI

TAF AMD KDAL 120301Z 1203/1224 16006KT P6SM BKN300 FM121700 18011KT P6SM FEW300